createdAt,value
2023-02-25T00:46:09.776Z,7.13
2023-02-25T00:48:55.078Z,8.13
2023-02-25T00:51:40.291Z,8.50
2023-02-25T00:54:25.873Z,7.90
2023-02-25T00:57:11.017Z,8.50
2023-02-25T00:59:56.294Z,6.13
2023-02-25T01:48:47.129Z,8.20
2023-02-25T01:51:33.098Z,7.07
2023-02-25T01:54:20.903Z,6.10
2023-02-25T01:57:09.742Z,5.72
2023-02-25T01:59:55.273Z,6.55
2023-02-25T02:49:19.107Z,5.65
2023-02-25T02:52:15.334Z,5.00
2023-02-25T02:55:13.316Z,6.57
2023-02-25T02:58:04.887Z,7.00
2023-02-25T03:48:19.680Z,4.75
2023-02-25T03:51:06.687Z,5.68
2023-02-25T03:53:53.849Z,4.57
2023-02-25T03:56:48.797Z,5.75
2023-02-25T03:59:34.151Z,4.93
2023-02-25T04:48:24.080Z,5.47
2023-02-25T04:51:09.713Z,4.88
2023-02-25T04:53:55.064Z,5.13
2023-02-25T04:56:40.672Z,4.47
2023-02-25T04:59:26.679Z,5.15
2023-02-25T05:48:09.415Z,3.85
2023-02-25T05:51:01.940Z,6.60
2023-02-25T05:53:49.033Z,3.80
2023-02-25T05:56:34.109Z,3.40
2023-02-25T05:59:19.591Z,3.80
2023-02-25T06:02:04.935Z,2.85
2023-02-25T06:04:55.778Z,4.97
2023-02-25T06:07:40.797Z,3.17
2023-02-25T06:10:27.008Z,4.57
2023-02-25T06:13:12.472Z,3.00
2023-02-25T06:15:58.193Z,2.45
2023-02-25T06:19:03.886Z,2.70
2023-02-25T06:21:55.569Z,2.65
2023-02-25T06:24:41.069Z,2.47
2023-02-25T06:27:26.355Z,3.57
2023-02-25T06:30:12.004Z,2.70
2023-02-25T06:32:57.509Z,3.15
2023-02-25T06:35:42.819Z,4.15
2023-02-25T06:38:28.228Z,3.10
2023-02-25T06:41:16.571Z,3.77
2023-02-25T06:44:01.900Z,4.35
2023-02-25T06:46:51.231Z,3.70
2023-02-25T06:49:36.478Z,4.78
2023-02-25T06:52:21.736Z,2.50
2023-02-25T06:55:07.836Z,4.13
2023-02-25T06:57:54.685Z,3.20
2023-02-25T07:00:43.170Z,2.80
2023-02-25T07:03:28.372Z,2.95
2023-02-25T07:06:16.713Z,3.88
2023-02-25T07:09:02.213Z,2.30
2023-02-25T07:11:47.275Z,3.15
2023-02-25T07:14:32.503Z,2.95
2023-02-25T07:17:17.956Z,3.00
2023-02-25T07:20:03.508Z,3.20
2023-02-25T07:22:48.965Z,2.40
2023-02-25T07:25:34.549Z,3.42
2023-02-25T07:28:20.056Z,2.83
2023-02-25T07:31:14.367Z,2.92
2023-02-25T07:34:05.925Z,2.92
2023-02-25T07:36:51.115Z,6.13
2023-02-25T07:39:36.489Z,3.85
2023-02-25T07:42:21.761Z,1.95
2023-02-25T07:45:09.800Z,3.20
2023-02-25T07:47:55.046Z,2.50
2023-02-25T07:50:40.488Z,3.00
2023-02-25T07:53:25.805Z,2.80
2023-02-25T07:56:11.918Z,3.05
2023-02-25T07:58:57.811Z,3.67
2023-02-25T08:01:44.228Z,2.42
2023-02-25T08:04:29.981Z,4.03
2023-02-25T08:07:15.346Z,3.17
2023-02-25T08:10:00.519Z,3.75
2023-02-25T08:12:45.847Z,5.65
2023-02-25T08:15:32.285Z,2.60
2023-02-25T08:18:18.073Z,4.53
2023-02-25T08:21:04.557Z,6.15
2023-02-25T08:23:54.005Z,3.75
2023-02-25T08:26:39.488Z,6.70
2023-02-25T08:29:25.086Z,5.55
2023-02-25T08:32:10.756Z,4.60
2023-02-25T08:34:56.549Z,5.28
2023-02-25T08:37:45.278Z,4.80
2023-02-25T08:40:31.785Z,5.13
2023-02-25T08:43:17.275Z,3.65
2023-02-25T08:46:03.176Z,5.60
2023-02-25T08:48:50.523Z,5.95
2023-02-25T08:51:35.876Z,5.40
2023-02-25T08:54:21.169Z,5.00
2023-02-25T08:57:06.536Z,5.45
2023-02-25T08:59:51.895Z,7.33
2023-02-25T09:02:38.945Z,3.75
2023-02-25T09:05:24.519Z,4.82
2023-02-25T09:08:09.654Z,6.00
2023-02-25T09:10:54.892Z,4.07
2023-02-25T09:13:40.358Z,6.17
2023-02-25T09:16:30.949Z,5.88
2023-02-25T09:19:19.206Z,5.07
2023-02-25T09:22:06.238Z,4.85
2023-02-25T09:24:51.346Z,6.03
2023-02-25T09:27:36.762Z,4.63
2023-02-25T09:30:22.307Z,5.75
2023-02-25T09:33:07.774Z,4.63
2023-02-25T09:35:53.077Z,4.32
2023-02-25T09:38:39.982Z,4.45
2023-02-25T09:41:45.323Z,3.90
2023-02-25T09:44:34.160Z,2.80
2023-02-25T09:47:33.372Z,3.95
2023-02-25T09:50:46.535Z,7.15
2023-02-25T09:53:36.960Z,7.30
2023-02-25T09:56:26.576Z,5.83
2023-02-25T09:59:16.039Z,4.13
2023-02-25T10:02:45.201Z,3.63
2023-02-25T10:05:51.763Z,2.95
2023-02-25T10:08:56.546Z,3.95
2023-02-25T10:12:21.015Z,3.27
2023-02-25T10:15:12.586Z,4.70
2023-02-25T10:18:12.892Z,2.42
2023-02-25T10:21:01.664Z,6.20
2023-02-25T10:24:08.464Z,3.42
2023-02-25T10:27:03.586Z,2.00
2023-02-25T10:30:27.072Z,3.97
2023-02-25T10:33:24.315Z,5.20
2023-02-25T10:36:14.638Z,1.83
2023-02-25T10:39:00.425Z,2.55
2023-02-25T10:41:45.698Z,2.83
2023-02-25T10:44:30.974Z,4.15
2023-02-25T10:47:24.768Z,3.97
2023-02-25T10:50:19.475Z,2.30
2023-02-25T10:53:13.603Z,4.50
2023-02-25T10:55:59.687Z,4.47
2023-02-25T10:58:47.129Z,2.78
2023-02-25T11:01:40.175Z,2.63
2023-02-25T11:04:33.202Z,3.92
2023-02-25T11:07:41.533Z,2.65
2023-02-25T11:10:26.986Z,2.73
2023-02-25T11:13:28.383Z,3.95
2023-02-25T11:16:14.670Z,8.98
2023-02-25T11:19:04.660Z,25.75
2023-02-25T11:21:51.292Z,45.47
2023-02-25T11:24:38.740Z,48.33
2023-02-25T11:27:39.230Z,43.10
2023-02-25T11:39:32.617Z,37.20
2023-02-25T11:42:24.128Z,39.50
2023-02-25T11:45:22.464Z,40.45
2023-02-25T11:48:19.600Z,44.78
2023-02-25T11:51:17.475Z,125.38
2023-02-25T11:54:38.616Z,181.73
2023-02-25T11:57:47.427Z,154.85
2023-02-25T12:01:03.908Z,185.98
2023-02-25T12:04:20.050Z,339.90
2023-02-25T12:07:14.590Z,404.27
2023-02-25T12:10:02.914Z,399.20
2023-02-25T12:13:11.062Z,384.42
2023-02-25T12:16:11.516Z,342.20
2023-02-25T12:19:27.120Z,334.33
2023-02-25T12:22:46.321Z,318.70
2023-02-25T12:25:44.265Z,300.63
2023-02-25T12:29:18.864Z,312.13
2023-02-25T12:32:30.794Z,292.83
2023-02-25T12:35:22.999Z,295.15
2023-02-25T12:38:26.905Z,293.02
2023-02-25T12:41:45.705Z,278.27
2023-02-25T12:44:43.013Z,282.30
2023-02-25T12:47:49.368Z,265.60
2023-02-25T12:50:55.924Z,281.52
2023-02-25T12:54:39.049Z,279.08
2023-02-25T12:57:57.269Z,268.77
2023-02-25T13:01:01.094Z,196.75
2023-02-25T13:03:55.791Z,167.45
2023-02-25T13:07:09.305Z,210.57
2023-02-25T13:10:00.897Z,210.05
2023-02-25T13:13:09.894Z,219.20
2023-02-25T13:16:15.796Z,223.98
2023-02-25T13:19:39.838Z,225.52
2023-02-25T13:22:28.291Z,217.73
2023-02-25T13:25:19.369Z,214.48
2023-02-25T13:28:17.125Z,221.17
2023-02-25T13:31:29.222Z,218.30
2023-02-25T13:34:34.611Z,214.55
2023-02-25T13:37:46.011Z,200.55
2023-02-25T13:40:59.683Z,199.43
2023-02-25T13:43:53.765Z,194.47
2023-02-25T13:47:01.135Z,197.95
2023-02-25T13:50:20.615Z,188.82
2023-02-25T13:53:34.482Z,180.60
2023-02-25T13:56:32.456Z,176.95
2023-02-25T13:59:56.056Z,174.33
2023-02-25T14:02:50.907Z,166.50
2023-02-25T14:06:08.584Z,170.60
2023-02-25T14:09:32.266Z,164.32
2023-02-25T14:13:08.498Z,160.52
2023-02-25T14:16:18.230Z,168.10
2023-02-25T14:19:22.441Z,161.70
2023-02-25T14:22:16.840Z,163.15
2023-02-25T14:25:25.557Z,155.95
2023-02-25T14:28:19.646Z,154.30
2023-02-25T14:31:20.251Z,142.43
2023-02-25T14:34:24.420Z,151.68
2023-02-25T14:37:27.976Z,149.80
2023-02-25T14:40:27.970Z,148.80
2023-02-25T14:43:30.126Z,149.02
2023-02-25T14:46:51.551Z,141.80
2023-02-25T14:50:00.873Z,140.07
2023-02-25T14:53:20.371Z,141.75
2023-02-25T14:56:11.633Z,131.73
2023-02-25T14:59:21.734Z,134.50
2023-02-25T15:02:19.247Z,132.57
2023-02-25T15:05:49.262Z,134.40
2023-02-25T15:08:34.698Z,126.57
2023-02-25T15:11:23.399Z,124.10
2023-02-25T15:14:23.934Z,123.78
2023-02-25T15:17:12.501Z,126.20
2023-02-25T15:20:18.350Z,123.20
2023-02-25T15:23:04.319Z,121.78
2023-02-25T15:26:20.167Z,115.43
2023-02-25T15:29:05.768Z,119.57
2023-02-25T15:32:24.290Z,118.90
2023-02-25T15:35:14.744Z,112.90
2023-02-25T15:38:00.052Z,113.43
2023-02-25T15:40:57.884Z,112.03
2023-02-25T15:43:44.503Z,109.53
2023-02-25T15:46:35.971Z,109.00
2023-02-25T15:49:23.812Z,103.28
2023-02-25T15:52:39.854Z,100.35
2023-02-25T15:55:37.129Z,99.68
2023-02-25T15:58:25.480Z,97.63
2023-02-25T16:01:27.945Z,92.67
2023-02-25T16:04:44.828Z,94.30
2023-02-25T16:07:38.013Z,94.25
2023-02-25T16:10:47.421Z,90.05
2023-02-25T16:13:35.698Z,87.18
2023-02-25T16:16:23.100Z,86.40
2023-02-25T16:19:16.183Z,87.45
2023-02-25T16:22:10.496Z,82.50
2023-02-25T16:24:58.866Z,87.40
2023-02-25T16:28:03.255Z,89.10
2023-02-25T16:31:13.472Z,88.30
2023-02-25T16:34:05.973Z,85.18
2023-02-25T16:37:03.489Z,79.45
2023-02-25T16:39:48.730Z,83.82
2023-02-25T16:42:34.035Z,82.90
2023-02-25T16:45:29.240Z,78.20
2023-02-25T16:48:18.833Z,76.47
2023-02-25T16:51:12.604Z,75.80
2023-02-25T16:54:06.371Z,76.97
2023-02-25T16:56:59.681Z,72.95
2023-02-25T16:59:46.925Z,72.60
2023-02-25T17:02:32.320Z,72.28
2023-02-25T17:05:33.470Z,69.18
2023-02-25T17:08:18.975Z,65.22
2023-02-25T17:11:05.816Z,67.78
2023-02-25T17:13:55.697Z,69.20
2023-02-25T17:16:43.610Z,67.90
2023-02-25T17:19:29.134Z,68.70
2023-02-25T17:22:20.197Z,67.97
2023-02-25T17:25:11.131Z,62.15
2023-02-25T17:27:58.911Z,61.93
2023-02-25T17:30:48.555Z,62.15
2023-02-25T17:33:34.795Z,58.70
2023-02-25T17:36:25.149Z,58.65
2023-02-25T17:39:20.884Z,58.33
2023-02-25T17:42:36.008Z,63.17
2023-02-25T17:45:40.702Z,101.78
2023-02-25T17:48:32.261Z,133.07
2023-02-25T17:51:17.877Z,126.50
2023-02-25T17:54:08.015Z,160.77
2023-02-25T17:56:59.184Z,141.13
2023-02-25T17:59:56.638Z,138.20
2023-02-25T18:02:44.249Z,137.48
2023-02-25T18:05:29.682Z,117.25
2023-02-25T18:08:19.464Z,96.90
2023-02-25T18:11:25.899Z,83.30
2023-02-25T18:14:27.772Z,83.72
2023-02-25T18:17:40.433Z,136.30
2023-02-25T18:20:31.766Z,105.95
2023-02-25T18:23:21.566Z,105.28
2023-02-25T18:26:20.120Z,210.10
2023-02-25T18:29:08.806Z,165.15
2023-02-25T18:31:54.385Z,133.98
2023-02-25T18:34:39.974Z,132.00
2023-02-25T18:37:29.600Z,131.15
2023-02-25T18:40:20.016Z,121.33
2023-02-25T18:43:06.880Z,113.47
2023-02-25T18:45:52.279Z,121.80
2023-02-25T18:48:37.609Z,115.15
2023-02-25T18:51:22.717Z,113.90
2023-02-25T18:54:14.835Z,115.07
2023-02-25T18:57:00.286Z,113.82
2023-02-25T18:59:45.699Z,103.35
2023-02-25T19:02:30.917Z,288.70
2023-02-25T19:05:18.505Z,175.35
2023-02-25T19:08:11.796Z,138.47
2023-02-25T19:10:57.004Z,130.35
2023-02-25T19:13:42.842Z,124.90
2023-02-25T19:16:28.562Z,119.95
2023-02-25T19:19:14.047Z,115.38
2023-02-25T19:21:59.658Z,105.30
2023-02-25T19:24:47.258Z,98.38
2023-02-25T19:27:32.452Z,97.10
2023-02-25T19:30:20.174Z,95.28
2023-02-25T19:33:07.022Z,91.80
2023-02-25T19:35:52.302Z,91.10
2023-02-25T19:38:37.421Z,93.40
2023-02-25T19:41:22.866Z,88.63
2023-02-25T19:44:08.957Z,93.22
2023-02-25T19:46:54.241Z,84.63
2023-02-25T19:49:39.558Z,83.23
2023-02-25T19:52:25.327Z,86.20
2023-02-25T19:55:12.349Z,82.78
2023-02-25T19:57:57.517Z,82.50
2023-02-25T20:00:45.981Z,77.55
2023-02-25T20:03:31.580Z,70.80
2023-02-25T20:06:17.189Z,79.85
2023-02-25T20:09:05.879Z,75.35
2023-02-25T20:11:52.863Z,53.20
2023-02-25T20:14:37.892Z,51.25
2023-02-25T20:17:25.061Z,47.13
2023-02-25T20:20:12.580Z,45.38
2023-02-25T20:22:58.232Z,46.38
2023-02-25T20:25:43.229Z,45.83
2023-02-25T20:28:28.520Z,48.83
2023-02-25T20:31:17.524Z,48.60
2023-02-25T20:34:05.663Z,48.33
2023-02-25T20:36:56.647Z,50.13
2023-02-25T20:39:49.684Z,43.20
2023-02-25T20:42:35.390Z,35.45
2023-02-25T20:45:20.900Z,31.47
2023-02-25T20:48:06.220Z,29.75
2023-02-25T20:50:51.432Z,37.10
2023-02-25T20:53:36.650Z,32.42
2023-02-25T20:56:25.356Z,37.88
2023-02-25T20:59:12.019Z,34.23
2023-02-25T21:01:58.155Z,36.83
2023-02-25T21:04:44.164Z,31.05
2023-02-25T21:07:29.492Z,37.70
2023-02-25T21:10:14.636Z,27.45
2023-02-25T21:13:00.256Z,27.80
2023-02-25T21:15:45.405Z,30.23
2023-02-25T21:18:31.113Z,28.92
2023-02-25T21:21:20.255Z,27.20
2023-02-25T21:24:14.900Z,33.00
2023-02-25T21:27:01.273Z,24.20
2023-02-25T21:29:46.507Z,25.23
2023-02-25T21:32:31.843Z,26.77
2023-02-25T21:35:17.904Z,31.23
2023-02-25T21:38:03.349Z,27.13
2023-02-25T21:40:49.136Z,18.50
2023-02-25T21:43:34.402Z,12.35
2023-02-25T21:46:20.038Z,10.85
2023-02-25T21:49:05.274Z,13.73
2023-02-25T21:51:51.438Z,14.57
2023-02-25T21:54:37.230Z,17.90
2023-02-25T21:57:22.491Z,15.48
2023-02-25T22:00:11.032Z,19.50
2023-02-25T22:02:59.495Z,18.02
2023-02-25T22:05:46.166Z,15.02
2023-02-25T22:08:31.283Z,16.87
2023-02-25T22:11:22.136Z,18.05
2023-02-25T22:14:08.835Z,15.55
2023-02-25T22:16:53.736Z,15.73
2023-02-25T22:19:39.005Z,15.25
2023-02-25T22:22:24.197Z,15.43
2023-02-25T22:25:09.750Z,13.80
2023-02-25T22:27:54.920Z,16.15
2023-02-25T22:30:40.276Z,15.20
2023-02-25T22:33:26.025Z,15.77
2023-02-25T22:36:12.744Z,13.43
2023-02-25T22:38:58.003Z,14.93
2023-02-25T22:41:43.516Z,13.00
2023-02-25T22:44:29.029Z,15.90
2023-02-25T22:47:14.319Z,15.32
2023-02-25T22:49:59.832Z,12.73
2023-02-25T22:52:46.914Z,15.70
2023-02-25T22:55:33.670Z,16.55
2023-02-25T22:58:18.500Z,15.23
2023-02-25T23:01:03.755Z,16.10
2023-02-25T23:03:50.405Z,16.60
2023-02-25T23:06:43.564Z,15.32
2023-02-25T23:09:29.355Z,15.05
2023-02-25T23:12:14.576Z,14.70
2023-02-25T23:15:00.149Z,15.93
2023-02-25T23:17:46.005Z,14.73
2023-02-25T23:20:33.568Z,15.82
2023-02-25T23:23:18.978Z,13.43
2023-02-25T23:26:08.310Z,14.10
2023-02-25T23:28:58.947Z,12.48
2023-02-25T23:31:46.918Z,13.77
2023-02-25T23:34:32.392Z,16.95
2023-02-25T23:37:18.009Z,12.10
2023-02-25T23:40:03.718Z,13.45
2023-02-25T23:42:49.341Z,14.77
2023-02-25T23:45:34.354Z,14.83
2023-02-25T23:48:19.545Z,11.43
2023-02-25T23:51:06.789Z,10.25
2023-02-25T23:53:54.154Z,11.75
2023-02-25T23:56:39.477Z,14.25
2023-02-25T23:59:24.642Z,16.17
